地図

経路データ

SID SEASON NUMBER BASIN SUBBASIN NAME ISO_TIME NATURE LAT LON WMO_WIND WMO_PRES WMO_AGENCY TRACK_TYPE DIST2LAND LANDFALL IFLAG USA_AGENCY USA_ATCF_ID USA_LAT USA_LON USA_RECORD USA_STATUS USA_WIND USA_PRES USA_SSHS USA_R34_NE USA_R34_SE USA_R34_SW USA_R34_NW USA_R50_NE USA_R50_SE USA_R50_SW USA_R50_NW USA_R64_NE USA_R64_SE USA_R64_SW USA_R64_NW USA_POCI USA_ROCI USA_RMW USA_EYE TOKYO_LAT TOKYO_LON TOKYO_GRADE TOKYO_WIND TOKYO_PRES TOKYO_R50_DIR TOKYO_R50_LONG TOKYO_R50_SHORT TOKYO_R30_DIR TOKYO_R30_LONG TOKYO_R30_SHORT TOKYO_LAND CMA_LAT CMA_LON CMA_CAT CMA_WIND CMA_PRES HKO_LAT HKO_LON HKO_CAT HKO_WIND HKO_PRES NEWDELHI_LAT NEWDELHI_LON NEWDELHI_GRADE NEWDELHI_WIND NEWDELHI_PRES NEWDELHI_CI NEWDELHI_DP NEWDELHI_POCI REUNION_LAT REUNION_LON REUNION_TYPE REUNION_WIND REUNION_PRES REUNION_TNUM REUNION_CI REUNION_RMW REUNION_R34_NE REUNION_R34_SE REUNION_R34_SW REUNION_R34_NW REUNION_R50_NE REUNION_R50_SE REUNION_R50_SW REUNION_R50_NW REUNION_R64_NE REUNION_R64_SE REUNION_R64_SW REUNION_R64_NW BOM_LAT BOM_LON BOM_TYPE BOM_WIND BOM_PRES BOM_TNUM BOM_CI BOM_RMW BOM_R34_NE BOM_R34_SE BOM_R34_SW BOM_R34_NW BOM_R50_NE BOM_R50_SE BOM_R50_SW BOM_R50_NW BOM_R64_NE BOM_R64_SE BOM_R64_SW BOM_R64_NW BOM_ROCI BOM_POCI BOM_EYE BOM_POS_METHOD BOM_PRES_METHOD NADI_LAT NADI_LON NADI_CAT NADI_WIND NADI_PRES WELLINGTON_LAT WELLINGTON_LON WELLINGTON_WIND WELLINGTON_PRES DS824_LAT DS824_LON DS824_STAGE DS824_WIND DS824_PRES TD9636_LAT TD9636_LON TD9636_STAGE TD9636_WIND TD9636_PRES TD9635_LAT TD9635_LON TD9635_WIND TD9635_PRES TD9635_ROCI NEUMANN_LAT NEUMANN_LON NEUMANN_CLASS NEUMANN_WIND NEUMANN_PRES MLC_LAT MLC_LON MLC_CLASS MLC_WIND MLC_PRES USA_GUST BOM_GUST BOM_GUST_PER REUNION_GUST REUNION_GUST_PER USA_SEAHGT USA_SEARAD_NE USA_SEARAD_SE USA_SEARAD_SW USA_SEARAD_NW STORM_SPEED STORM_DIR
1970336S14123 1971 152 SI WA EVA(BEV-EVA) 1970-12-02 00:00:00 TS -14.2000 123.300 spur-merge 196 194 _________O____ -1 -14.2000 123.300 TC 60 980 14 245
1970336S14123 1971 152 SI WA EVA(BEV-EVA) 1970-12-02 03:00:00 TS -14.4845 122.663 spur-merge 218 208 _________P____ -1 -14.4911 122.646 TC 62 977 13 244
1970336S14123 1971 152 SI WA EVA(BEV-EVA) 1970-12-02 06:00:00 TS -14.7840 122.073 spur-merge 208 203 _________P____ -1 -14.7848 122.052 TC 65 975 13 242
1970336S14123 1971 152 SI WA EVA(BEV-EVA) 1970-12-02 07:00:00 TS -14.8859 121.898 spur-merge 208 205 _________P____ -1 -14.8841 121.879 TC 65 974 11 236
1970336S14123 1971 152 SI WA EVA(BEV-EVA) 1970-12-02 09:00:00 TS -15.0914 121.596 spur-merge 209 208 _________P____ -1 -15.0860 121.583 TC 67 972 9 228
1970336S14123 1971 152 SI WA EVA(BEV-EVA) 1970-12-02 12:00:00 TS -15.4000 121.300 spur-merge 208 193 _________O____ -1 -15.4000 121.300 TC 70 970 7 208
1970336S14123 1971 152 SI WA EVA(BEV-EVA) 1970-12-02 15:00:00 TS -15.7277 121.246 spur-merge 193 154 _________P____ -1 -15.7277 121.246 TC 70 970 7 174
1970336S14123 1971 152 SI WA EVA(BEV-EVA) 1970-12-02 18:00:00 TS -16.0518 121.373 spur-merge 147 116 _________P____ -1 -16.0518 121.373 TC 70 970 7 150
1970336S14123 1971 152 SI WA EVA(BEV-EVA) 1970-12-02 21:00:00 TS -16.3500 121.615 spur-merge 116 70 _________P____ -1 -16.3500 121.615 TC 70 970 7 137
1970336S14123 1971 152 SI WA EVA(BEV-EVA) 1970-12-03 00:00:00 TS -16.6000 121.900 spur-merge 70 54 _________O____ -1 -16.6000 121.900 TC 70 970 7 133
1970336S14123 1971 152 SI WA EVA(BEV-EVA) 1970-12-03 01:00:00 TS -16.6652 121.971 spur-merge 54 39 _________P____ -1 -16.6652 121.971 TC 69 970 6 129
1970336S14123 1971 152 SI WA EVA(BEV-EVA) 1970-12-03 03:00:00 TS -16.7754 122.126 spur-merge 39 10 _________P____ -1 -16.7754 122.126 TC 67 972 5 121
1970336S14123 1971 152 SI WA EVA(BEV-EVA) 1970-12-03 06:00:00 TS -16.9026 122.378 spur-merge 10 0 _________P____ -1 -16.9026 122.378 TC 65 975 5 115
1970336S14123 1971 152 SI WA EVA(BEV-EVA) 1970-12-03 09:00:00 TS -17.0035 122.641 spur-merge 0 0 _________P____ -1 -17.0035 122.641 TC 62 977 5 112
1970336S14123 1971 152 SI WA EVA(BEV-EVA) 1970-12-03 12:00:00 TS -17.1000 122.900 spur-merge 0 0 _________O____ -1 -17.1000 122.900 TC 60 980 5 115
1970336S14123 1971 152 SI WA EVA(BEV-EVA) 1970-12-03 15:00:00 TS -17.2195 123.130 spur-merge 0 0 _________P____ -1 -17.2195 123.130 TC 56 982 5 119
1970336S14123 1971 152 SI WA EVA(BEV-EVA) 1970-12-03 16:00:00 TS -17.2594 123.205 spur-merge 0 0 _________P____ -1 -17.2594 123.205 TC 55 983 5 120
1970336S14123 1971 152 SI WA EVA(BEV-EVA) 1970-12-03 18:00:00 TS -17.3400 123.354 spur-merge 0 0 _________P____ -1 -17.3400 123.354 TC 52 985 5 120
1970336S14123 1971 152 SI WA EVA(BEV-EVA) 1970-12-03 21:00:00 TS -17.4654 123.575 spur-merge 0 0 _________P____ -1 -17.4654 123.575 TC 48 987 5 121
1970336S14123 1971 152 SI WA EVA(BEV-EVA) 1970-12-04 00:00:00 TS -17.6000 123.800 spur-merge 0 0 _________O____ -1 -17.6000 123.800 TC 45 990 5 124
1970336S14123 1971 152 SI WA EVA(BEV-EVA) 1970-12-04 01:00:00 TS -17.6599 123.881 spur-merge 0 0 _________P____ -1 -17.6475 123.876 TC 6 129
1970336S14123 1971 152 SI WA EVA(BEV-EVA) 1970-12-04 03:00:00 TS -17.7900 124.047 spur-merge 0 0 _________P____ -1 -17.7468 124.032 TC 6 130
1970336S14123 1971 152 SI WA EVA(BEV-EVA) 1970-12-04 04:00:00 TS -17.8591 124.131 spur-merge 0 0 _________P____ -1 -17.7983 124.110 TC 6 131
1970336S14123 1971 152 SI WA EVA(BEV-EVA) 1970-12-04 06:00:00 TS -18.0031 124.302 spur-merge 0 0 _________P____ -1 -17.9050 124.270 TC 7 132
1970336S14123 1971 152 SI WA EVA(BEV-EVA) 1970-12-04 09:00:00 TS -18.2255 124.563 spur-merge 0 0 _________P____ -1 -18.0730 124.515 TC 7 132
1970336S14123 1971 152 SI WA EVA(BEV-EVA) 1970-12-04 12:00:00 TS -18.4436 124.824 spur-merge 0 0 _________P____ -1 -18.2490 124.765 TC 7 131
1970336S14123 1971 152 SI WA EVA(BEV-EVA) 1970-12-04 13:00:00 TS -18.5130 124.911 spur-merge 0 0 _________P____ -1 -18.3092 124.850 TC 6 129
1970336S14123 1971 152 SI WA EVA(BEV-EVA) 1970-12-04 15:00:00 TS -18.6438 125.083 spur-merge 0 0 _________P____ -1 -18.4314 125.020 TC 6 127
1970336S14123 1971 152 SI WA EVA(BEV-EVA) 1970-12-04 18:00:00 TS -18.8123 125.334 spur-merge 0 0 _________P____ -1 -18.6185 125.278 TC 6 122
1970336S14123 1971 152 SI WA EVA(BEV-EVA) 1970-12-04 21:00:00 TS -18.9356 125.575 spur-merge 0 0 _________P____ -1 -18.8086 125.538 TC 5 113
1970336S14123 1971 152 SI WA EVA(BEV-EVA) 1970-12-05 00:00:00 TS -19.0000 125.800 spur-merge 0 0 _________O____ -1 -19.0000 125.800 TC 30 1000 4 104
1970336S14123 1971 152 SI WA EVA(BEV-EVA) 1970-12-05 01:00:00 TS -19.0062 125.871 spur-merge 0 0 ______________ -1 TC 4 89
1970336S14123 1971 152 SI WA EVA(BEV-EVA) 1970-12-05 03:00:00 TS -18.9958 126.007 spur-merge 0 0 ______________ -1 TC 4 76
1970336S14123 1971 152 SI WA EVA(BEV-EVA) 1970-12-05 06:00:00 TS -18.9283 126.196 spur-merge 0 0 ______________ -1 TC 4 61
1970336S14123 1971 152 SI WA EVA(BEV-EVA) 1970-12-05 09:00:00 TS -18.8065 126.370 spur-merge 0 0 ______________ -1 TC 4 48
1970336S14123 1971 152 SI WA EVA(BEV-EVA) 1970-12-05 12:00:00 TS -18.6395 126.532 spur-merge 0 ______________ -1 TC 5 43

IBTrACS Databaseについて

本データベースは、米国NOAAが公開する1842年以降の世界の熱帯低気圧のベストトラックデータアーカイブInternational Best Track Archive for Climate Stewardship (IBTrACS)を、ウェブで閲覧しやすい形式に変換したものです。

最終更新日:2021-10-21